sensor_id;sensor_type;location;lat;lon;timestamp;pressure;altitude;pressure_sealevel;temperature;humidity
40592;BME280;26301;42.832;23.918;2023-05-14T00:01:52;93604.75;;;10.38;90.78
40592;BME280;26301;42.832;23.918;2023-05-14T00:04:18;93630.59;;;10.49;91.09
40592;BME280;26301;42.832;23.918;2023-05-14T00:06:44;93617.47;;;10.51;93.02
40592;BME280;26301;42.832;23.918;2023-05-14T00:09:11;93622.84;;;10.49;92.20
40592;BME280;26301;42.832;23.918;2023-05-14T00:11:37;93622.84;;;10.49;92.23
40592;BME280;26301;42.832;23.918;2023-05-14T00:14:03;93624.19;;;10.52;91.73
40592;BME280;26301;42.832;23.918;2023-05-14T00:16:29;93618.66;;;10.37;90.49
40592;BME280;26301;42.832;23.918;2023-05-14T00:18:55;93635.66;;;10.44;91.31
40592;BME280;26301;42.832;23.918;2023-05-14T00:21:20;93610.00;;;10.31;91.02
40592;BME280;26301;42.832;23.918;2023-05-14T00:23:46;93615.13;;;10.19;91.54
40592;BME280;26301;42.832;23.918;2023-05-14T00:26:12;93602.56;;;10.23;92.49
40592;BME280;26301;42.832;23.918;2023-05-14T00:28:37;93632.25;;;10.44;92.02
40592;BME280;26301;42.832;23.918;2023-05-14T00:31:03;93607.28;;;10.26;92.40
40592;BME280;26301;42.832;23.918;2023-05-14T00:33:29;93639.91;;;10.39;92.36
40592;BME280;26301;42.832;23.918;2023-05-14T00:35:55;93612.59;;;10.31;90.55
40592;BME280;26301;42.832;23.918;2023-05-14T00:38:20;93625.41;;;10.38;90.48
40592;BME280;26301;42.832;23.918;2023-05-14T00:40:48;93632.69;;;10.41;90.37
40592;BME280;26301;42.832;23.918;2023-05-14T00:43:21;93630.69;;;10.43;91.25
40592;BME280;26301;42.832;23.918;2023-05-14T00:45:51;93606.88;;;10.29;92.09
40592;BME280;26301;42.832;23.918;2023-05-14T00:48:18;93620.38;;;10.43;91.19
40592;BME280;26301;42.832;23.918;2023-05-14T00:50:44;93612.28;;;10.39;91.19
40592;BME280;26301;42.832;23.918;2023-05-14T00:53:10;93584.56;;;10.16;91.31
40592;BME280;26301;42.832;23.918;2023-05-14T00:55:37;93575.72;;;10.12;90.92
40592;BME280;26301;42.832;23.918;2023-05-14T00:58:09;93591.53;;;10.16;91.54
40592;BME280;26301;42.832;23.918;2023-05-14T01:00:36;93610.31;;;10.23;91.80
40592;BME280;26301;42.832;23.918;2023-05-14T01:03:02;93615.63;;;10.28;91.45
40592;BME280;26301;42.832;23.918;2023-05-14T01:16:51;93569.31;;;10.03;89.13
40592;BME280;26301;42.832;23.918;2023-05-14T01:19:35;93569.44;;;10.08;89.15
40592;BME280;26301;42.832;23.918;2023-05-14T01:22:01;93556.88;;;10.12;90.87
40592;BME280;26301;42.832;23.918;2023-05-14T01:24:27;93518.66;;;9.78;91.78
40592;BME280;26301;42.832;23.918;2023-05-14T01:26:56;93577.97;;;10.08;92.03
40592;BME280;26301;42.832;23.918;2023-05-14T01:29:25;93594.03;;;10.22;90.43
40592;BME280;26301;42.832;23.918;2023-05-14T01:31:54;93592.00;;;10.24;90.27
40592;BME280;26301;42.832;23.918;2023-05-14T01:34:23;93592.78;;;10.25;89.63
40592;BME280;26301;42.832;23.918;2023-05-14T01:36:50;93575.03;;;10.05;90.63
40592;BME280;26301;42.832;23.918;2023-05-14T01:39:16;93603.00;;;10.20;90.44
40592;BME280;26301;42.832;23.918;2023-05-14T01:41:42;93578.38;;;9.94;90.11
40592;BME280;26301;42.832;23.918;2023-05-14T01:44:08;93571.94;;;9.84;89.79
40592;BME280;26301;42.832;23.918;2023-05-14T01:46:35;93600.38;;;9.96;89.98
40592;BME280;26301;42.832;23.918;2023-05-14T01:49:01;93572.25;;;9.76;89.86
40592;BME280;26301;42.832;23.918;2023-05-14T01:51:26;93603.81;;;9.90;90.79
40592;BME280;26301;42.832;23.918;2023-05-14T01:53:52;93574.69;;;9.71;92.29
40592;BME280;26301;42.832;23.918;2023-05-14T01:56:19;93606.47;;;9.83;93.07
40592;BME280;26301;42.832;23.918;2023-05-14T01:58:46;93588.59;;;9.70;91.98
40592;BME280;26301;42.832;23.918;2023-05-14T02:01:12;93606.22;;;9.73;92.19
40592;BME280;26301;42.832;23.918;2023-05-14T02:03:37;93615.50;;;9.74;92.41
40592;BME280;26301;42.832;23.918;2023-05-14T02:06:03;93609.81;;;9.72;91.98
40592;BME280;26301;42.832;23.918;2023-05-14T02:08:29;93598.47;;;9.73;92.07
40592;BME280;26301;42.832;23.918;2023-05-14T02:10:54;93583.66;;;9.69;91.87
40592;BME280;26301;42.832;23.918;2023-05-14T02:13:20;93599.84;;;9.76;92.18
40592;BME280;26301;42.832;23.918;2023-05-14T02:15:45;93593.91;;;9.75;90.76
40592;BME280;26301;42.832;23.918;2023-05-14T02:18:11;93592.72;;;9.71;90.59
40592;BME280;26301;42.832;23.918;2023-05-14T02:20:37;93610.06;;;9.82;90.82
40592;BME280;26301;42.832;23.918;2023-05-14T02:23:02;93609.03;;;9.83;90.05
40592;BME280;26301;42.832;23.918;2023-05-14T02:25:28;93611.19;;;9.87;90.49
40592;BME280;26301;42.832;23.918;2023-05-14T02:27:53;93593.31;;;9.73;90.22
40592;BME280;26301;42.832;23.918;2023-05-14T02:30:20;93583.72;;;9.62;90.13
40592;BME280;26301;42.832;23.918;2023-05-14T02:32:46;93608.50;;;9.81;91.11
40592;BME280;26301;42.832;23.918;2023-05-14T02:35:11;93595.97;;;9.67;91.98
40592;BME280;26301;42.832;23.918;2023-05-14T02:37:37;93606.88;;;9.69;91.98
40592;BME280;26301;42.832;23.918;2023-05-14T02:40:02;93604.84;;;9.71;92.26
40592;BME280;26301;42.832;23.918;2023-05-14T02:42:28;93608.00;;;9.73;93.29
40592;BME280;26301;42.832;23.918;2023-05-14T02:44:54;93613.38;;;9.71;93.55
40592;BME280;26301;42.832;23.918;2023-05-14T02:47:20;93590.69;;;9.61;94.15
40592;BME280;26301;42.832;23.918;2023-05-14T02:49:45;93615.50;;;9.74;95.50
40592;BME280;26301;42.832;23.918;2023-05-14T02:52:11;93610.44;;;9.68;94.19
40592;BME280;26301;42.832;23.918;2023-05-14T02:54:37;93610.25;;;9.69;94.36
40592;BME280;26301;42.832;23.918;2023-05-14T02:57:02;93611.59;;;9.72;95.54
40592;BME280;26301;42.832;23.918;2023-05-14T02:59:28;93615.31;;;9.76;96.42
40592;BME280;26301;42.832;23.918;2023-05-14T03:01:54;93611.94;;;9.75;97.12
40592;BME280;26301;42.832;23.918;2023-05-14T03:04:19;93612.16;;;9.74;97.74
40592;BME280;26301;42.832;23.918;2023-05-14T03:06:45;93618.91;;;9.75;98.18
40592;BME280;26301;42.832;23.918;2023-05-14T03:09:11;93610.94;;;9.76;99.04
40592;BME280;26301;42.832;23.918;2023-05-14T03:11:36;93603.44;;;9.75;99.43
40592;BME280;26301;42.832;23.918;2023-05-14T03:14:02;93613.88;;;9.80;99.41
40592;BME280;26301;42.832;23.918;2023-05-14T03:16:27;93616.34;;;9.87;99.73
40592;BME280;26301;42.832;23.918;2023-05-14T03:18:53;93612.06;;;9.80;100.00
40592;BME280;26301;42.832;23.918;2023-05-14T03:21:19;93581.59;;;9.59;100.00
40592;BME280;26301;42.832;23.918;2023-05-14T03:23:44;93602.63;;;9.74;100.00
40592;BME280;26301;42.832;23.918;2023-05-14T03:26:10;93613.75;;;9.75;100.00
40592;BME280;26301;42.832;23.918;2023-05-14T03:28:35;93592.81;;;9.65;100.00
40592;BME280;26301;42.832;23.918;2023-05-14T03:31:01;93583.25;;;9.53;100.00
40592;BME280;26301;42.832;23.918;2023-05-14T03:33:27;93606.31;;;9.67;100.00
40592;BME280;26301;42.832;23.918;2023-05-14T03:35:53;93598.50;;;9.55;100.00
40592;BME280;26301;42.832;23.918;2023-05-14T03:38:19;93603.22;;;9.58;100.00
40592;BME280;26301;42.832;23.918;2023-05-14T03:40:45;93608.53;;;9.63;100.00
40592;BME280;26301;42.832;23.918;2023-05-14T03:43:10;93602.34;;;9.64;100.00
40592;BME280;26301;42.832;23.918;2023-05-14T03:45:37;93601.34;;;9.65;100.00
40592;BME280;26301;42.832;23.918;2023-05-14T03:48:02;93608.44;;;9.70;100.00
40592;BME280;26301;42.832;23.918;2023-05-14T03:50:28;93584.50;;;9.62;100.00
40592;BME280;26301;42.832;23.918;2023-05-14T03:52:54;93598.19;;;9.81;100.00
40592;BME280;26301;42.832;23.918;2023-05-14T03:55:19;93585.03;;;9.83;100.00
40592;BME280;26301;42.832;23.918;2023-05-14T03:57:46;93568.66;;;9.77;100.00
40592;BME280;26301;42.832;23.918;2023-05-14T04:00:12;93598.56;;;9.97;100.00
40592;BME280;26301;42.832;23.918;2023-05-14T04:02:37;93580.59;;;9.90;100.00
40592;BME280;26301;42.832;23.918;2023-05-14T04:05:03;93611.28;;;10.10;100.00
40592;BME280;26301;42.832;23.918;2023-05-14T04:07:29;93614.00;;;10.15;100.00
40592;BME280;26301;42.832;23.918;2023-05-14T04:09:55;93613.69;;;10.23;100.00
40592;BME280;26301;42.832;23.918;2023-05-14T04:12:20;93609.47;;;10.29;100.00
40592;BME280;26301;42.832;23.918;2023-05-14T04:14:46;93623.19;;;10.41;100.00
40592;BME280;26301;42.832;23.918;2023-05-14T04:17:12;93603.97;;;10.37;100.00
40592;BME280;26301;42.832;23.918;2023-05-14T04:19:37;93620.72;;;10.58;100.00
40592;BME280;26301;42.832;23.918;2023-05-14T04:22:04;93601.84;;;10.46;100.00
40592;BME280;26301;42.832;23.918;2023-05-14T04:24:29;93628.81;;;10.62;100.00
40592;BME280;26301;42.832;23.918;2023-05-14T04:26:55;93622.19;;;10.54;100.00
40592;BME280;26301;42.832;23.918;2023-05-14T04:29:20;93627.59;;;10.64;100.00
40592;BME280;26301;42.832;23.918;2023-05-14T04:31:47;93630.28;;;10.69;100.00
40592;BME280;26301;42.832;23.918;2023-05-14T04:34:13;93600.84;;;10.70;100.00
40592;BME280;26301;42.832;23.918;2023-05-14T04:36:38;93621.41;;;10.89;100.00
40592;BME280;26301;42.832;23.918;2023-05-14T04:39:04;93618.63;;;11.02;100.00
40592;BME280;26301;42.832;23.918;2023-05-14T04:41:30;93602.88;;;10.92;100.00
40592;BME280;26301;42.832;23.918;2023-05-14T04:43:55;93591.88;;;10.96;100.00
40592;BME280;26301;42.832;23.918;2023-05-14T04:46:21;93597.38;;;11.12;100.00
40592;BME280;26301;42.832;23.918;2023-05-14T04:48:47;93587.91;;;11.17;100.00
40592;BME280;26301;42.832;23.918;2023-05-14T04:51:13;93622.28;;;11.41;100.00
40592;BME280;26301;42.832;23.918;2023-05-14T04:53:39;93619.69;;;11.53;100.00
40592;BME280;26301;42.832;23.918;2023-05-14T04:56:04;93600.09;;;11.45;100.00
40592;BME280;26301;42.832;23.918;2023-05-14T04:58:30;93622.44;;;11.63;100.00
40592;BME280;26301;42.832;23.918;2023-05-14T05:00:58;93605.38;;;11.62;100.00
40592;BME280;26301;42.832;23.918;2023-05-14T05:03:23;93633.34;;;11.77;100.00
40592;BME280;26301;42.832;23.918;2023-05-14T05:05:49;93615.00;;;11.67;100.00
40592;BME280;26301;42.832;23.918;2023-05-14T05:08:15;93626.03;;;11.86;99.36
40592;BME280;26301;42.832;23.918;2023-05-14T05:10:40;93614.50;;;11.94;100.00
40592;BME280;26301;42.832;23.918;2023-05-14T05:13:06;93593.38;;;11.85;100.00
40592;BME280;26301;42.832;23.918;2023-05-14T05:15:31;93604.28;;;11.87;100.00
40592;BME280;26301;42.832;23.918;2023-05-14T05:17:57;93631.03;;;12.04;100.00
40592;BME280;26301;42.832;23.918;2023-05-14T05:20:22;93626.84;;;12.03;99.84
40592;BME280;26301;42.832;23.918;2023-05-14T05:22:49;93634.75;;;11.97;100.00
40592;BME280;26301;42.832;23.918;2023-05-14T05:25:14;93640.81;;;12.02;100.00
40592;BME280;26301;42.832;23.918;2023-05-14T05:27:40;93610.50;;;11.86;100.00
40592;BME280;26301;42.832;23.918;2023-05-14T05:30:06;93633.16;;;12.07;100.00
40592;BME280;26301;42.832;23.918;2023-05-14T05:32:33;93629.44;;;12.03;100.00
40592;BME280;26301;42.832;23.918;2023-05-14T05:34:58;93646.81;;;12.20;100.00
40592;BME280;26301;42.832;23.918;2023-05-14T05:37:24;93626.47;;;12.11;100.00
40592;BME280;26301;42.832;23.918;2023-05-14T05:39:49;93631.34;;;12.08;100.00
40592;BME280;26301;42.832;23.918;2023-05-14T05:42:15;93651.63;;;12.28;99.26
40592;BME280;26301;42.832;23.918;2023-05-14T05:44:41;93648.06;;;12.17;99.24
40592;BME280;26301;42.832;23.918;2023-05-14T05:47:06;93673.91;;;12.29;98.95
40592;BME280;26301;42.832;23.918;2023-05-14T05:49:32;93652.94;;;12.13;99.69
40592;BME280;26301;42.832;23.918;2023-05-14T05:51:57;93671.13;;;12.30;99.94
40592;BME280;26301;42.832;23.918;2023-05-14T05:54:23;93662.59;;;12.18;99.34
40592;BME280;26301;42.832;23.918;2023-05-14T05:56:51;93683.81;;;12.32;97.70
40592;BME280;26301;42.832;23.918;2023-05-14T05:59:17;93640.19;;;12.12;97.90
40592;BME280;26301;42.832;23.918;2023-05-14T06:01:42;93673.88;;;12.41;97.40
40592;BME280;26301;42.832;23.918;2023-05-14T06:04:09;93671.44;;;12.34;97.23
40592;BME280;26301;42.832;23.918;2023-05-14T06:06:34;93672.84;;;12.42;98.47
40592;BME280;26301;42.832;23.918;2023-05-14T06:09:00;93697.81;;;12.48;89.54
40592;BME280;26301;42.832;23.918;2023-05-14T06:11:26;93685.00;;;12.41;91.99
40592;BME280;26301;42.832;23.918;2023-05-14T06:13:52;93710.56;;;12.49;80.92
40592;BME280;26301;42.832;23.918;2023-05-14T06:16:18;93697.22;;;12.57;82.09
40592;BME280;26301;42.832;23.918;2023-05-14T06:18:44;93710.56;;;12.66;80.32
40592;BME280;26301;42.832;23.918;2023-05-14T06:21:09;93708.53;;;12.68;80.33
40592;BME280;26301;42.832;23.918;2023-05-14T06:23:36;93710.56;;;12.66;81.24
40592;BME280;26301;42.832;23.918;2023-05-14T06:26:01;93683.06;;;12.48;82.99
40592;BME280;26301;42.832;23.918;2023-05-14T06:28:27;93699.34;;;12.61;85.39
40592;BME280;26301;42.832;23.918;2023-05-14T06:30:53;93683.41;;;12.52;86.71
40592;BME280;26301;42.832;23.918;2023-05-14T06:33:19;93682.75;;;12.45;90.98
40592;BME280;26301;42.832;23.918;2023-05-14T06:35:47;93705.38;;;12.66;93.28
40592;BME280;26301;42.832;23.918;2023-05-14T06:38:13;93686.53;;;12.54;94.17
40592;BME280;26301;42.832;23.918;2023-05-14T06:40:38;93678.28;;;12.57;94.72
40592;BME280;26301;42.832;23.918;2023-05-14T06:43:04;93677.75;;;12.55;93.52
40592;BME280;26301;42.832;23.918;2023-05-14T06:45:30;93664.22;;;12.53;93.12
40592;BME280;26301;42.832;23.918;2023-05-14T06:47:56;93693.84;;;12.74;95.11
40592;BME280;26301;42.832;23.918;2023-05-14T06:50:22;93709.03;;;12.82;95.85
40592;BME280;26301;42.832;23.918;2023-05-14T06:52:47;93680.28;;;12.67;95.24
40592;BME280;26301;42.832;23.918;2023-05-14T06:55:13;93690.78;;;12.60;95.39
40592;BME280;26301;42.832;23.918;2023-05-14T06:57:39;93691.63;;;12.49;99.43
40592;BME280;26301;42.832;23.918;2023-05-14T07:00:05;93676.50;;;12.29;94.93
40592;BME280;26301;42.832;23.918;2023-05-14T07:02:31;93674.84;;;12.23;94.32
40592;BME280;26301;42.832;23.918;2023-05-14T07:04:56;93676.38;;;12.35;97.19
40592;BME280;26301;42.832;23.918;2023-05-14T07:07:22;93691.22;;;12.40;98.82
40592;BME280;26301;42.832;23.918;2023-05-14T07:09:50;93679.38;;;12.16;100.00
40592;BME280;26301;42.832;23.918;2023-05-14T07:12:16;93700.75;;;12.23;100.00
40592;BME280;26301;42.832;23.918;2023-05-14T07:14:41;93638.72;;;11.76;100.00
40592;BME280;26301;42.832;23.918;2023-05-14T07:17:07;93698.50;;;12.15;100.00
40592;BME280;26301;42.832;23.918;2023-05-14T07:19:32;93680.38;;;12.15;100.00
40592;BME280;26301;42.832;23.918;2023-05-14T07:21:58;93691.41;;;12.22;100.00
40592;BME280;26301;42.832;23.918;2023-05-14T07:24:24;93671.69;;;12.21;100.00
40592;BME280;26301;42.832;23.918;2023-05-14T07:26:49;93671.53;;;12.27;100.00
40592;BME280;26301;42.832;23.918;2023-05-14T07:29:15;93666.84;;;12.24;100.00
40592;BME280;26301;42.832;23.918;2023-05-14T07:31:40;93650.63;;;12.29;100.00
40592;BME280;26301;42.832;23.918;2023-05-14T07:34:06;93647.13;;;12.23;100.00
40592;BME280;26301;42.832;23.918;2023-05-14T07:36:32;93680.06;;;12.40;100.00
40592;BME280;26301;42.832;23.918;2023-05-14T07:38:59;93659.91;;;12.13;100.00
40592;BME280;26301;42.832;23.918;2023-05-14T07:41:24;93701.06;;;12.26;100.00
40592;BME280;26301;42.832;23.918;2023-05-14T07:43:50;93699.19;;;12.22;100.00
40592;BME280;26301;42.832;23.918;2023-05-14T07:46:15;93681.78;;;12.05;100.00
40592;BME280;26301;42.832;23.918;2023-05-14T07:48:43;93667.63;;;11.84;100.00
40592;BME280;26301;42.832;23.918;2023-05-14T07:51:09;93707.56;;;12.00;100.00
40592;BME280;26301;42.832;23.918;2023-05-14T07:53:36;93710.84;;;11.96;100.00
40592;BME280;26301;42.832;23.918;2023-05-14T07:56:01;93719.38;;;12.08;100.00
40592;BME280;26301;42.832;23.918;2023-05-14T07:58:27;93711.72;;;12.13;100.00
40592;BME280;26301;42.832;23.918;2023-05-14T08:00:53;93706.53;;;12.13;100.00
40592;BME280;26301;42.832;23.918;2023-05-14T08:03:18;93692.22;;;12.10;100.00
40592;BME280;26301;42.832;23.918;2023-05-14T08:05:44;93708.28;;;12.24;100.00
40592;BME280;26301;42.832;23.918;2023-05-14T08:08:10;93698.84;;;12.18;100.00
40592;BME280;26301;42.832;23.918;2023-05-14T08:10:36;93711.63;;;12.37;100.00
40592;BME280;26301;42.832;23.918;2023-05-14T08:13:02;93690.25;;;12.29;100.00
40592;BME280;26301;42.832;23.918;2023-05-14T08:15:28;93722.38;;;12.45;100.00
40592;BME280;26301;42.832;23.918;2023-05-14T08:17:53;93706.75;;;12.40;100.00
40592;BME280;26301;42.832;23.918;2023-05-14T08:20:19;93722.91;;;12.59;100.00
40592;BME280;26301;42.832;23.918;2023-05-14T08:22:45;93703.41;;;12.56;100.00
40592;BME280;26301;42.832;23.918;2023-05-14T08:25:10;93719.22;;;12.72;100.00
40592;BME280;26301;42.832;23.918;2023-05-14T08:27:36;93691.91;;;12.64;100.00
40592;BME280;26301;42.832;23.918;2023-05-14T08:30:05;93708.47;;;12.80;100.00
40592;BME280;26301;42.832;23.918;2023-05-14T08:32:30;93712.63;;;12.81;100.00
40592;BME280;26301;42.832;23.918;2023-05-14T08:34:56;93695.19;;;12.76;100.00
40592;BME280;26301;42.832;23.918;2023-05-14T08:37:22;93678.88;;;12.76;100.00
40592;BME280;26301;42.832;23.918;2023-05-14T08:39:48;93698.44;;;13.00;100.00
40592;BME280;26301;42.832;23.918;2023-05-14T08:42:14;93693.25;;;13.00;100.00
40592;BME280;26301;42.832;23.918;2023-05-14T08:44:47;93691.44;;;13.01;100.00
40592;BME280;26301;42.832;23.918;2023-05-14T08:47:17;93693.47;;;12.99;100.00
40592;BME280;26301;42.832;23.918;2023-05-14T08:49:46;93679.81;;;12.87;100.00
40592;BME280;26301;42.832;23.918;2023-05-14T08:52:15;93668.03;;;12.79;100.00
40592;BME280;26301;42.832;23.918;2023-05-14T08:54:42;93681.63;;;13.03;100.00
40592;BME280;26301;42.832;23.918;2023-05-14T08:57:13;93681.69;;;13.08;100.00
40592;BME280;26301;42.832;23.918;2023-05-14T08:59:39;93688.75;;;13.13;100.00
40592;BME280;26301;42.832;23.918;2023-05-14T09:02:05;93692.53;;;13.22;99.76
40592;BME280;26301;42.832;23.918;2023-05-14T09:04:35;93605.19;;;12.89;97.98
40592;BME280;26301;42.832;23.918;2023-05-14T09:07:02;93680.88;;;13.41;100.00
40592;BME280;26301;42.832;23.918;2023-05-14T09:09:28;93663.06;;;13.45;100.00
40592;BME280;26301;42.832;23.918;2023-05-14T09:11:54;93652.41;;;13.46;100.00
40592;BME280;26301;42.832;23.918;2023-05-14T09:14:21;93644.03;;;13.61;97.13
40592;BME280;26301;42.832;23.918;2023-05-14T09:16:48;93633.22;;;13.47;96.87
40592;BME280;26301;42.832;23.918;2023-05-14T09:19:14;93653.72;;;13.66;99.58
40592;BME280;26301;42.832;23.918;2023-05-14T09:21:44;93646.34;;;13.80;98.83
40592;BME280;26301;42.832;23.918;2023-05-14T09:24:18;93646.69;;;13.88;100.00
40592;BME280;26301;42.832;23.918;2023-05-14T09:26:49;93651.97;;;13.93;98.46
40592;BME280;26301;42.832;23.918;2023-05-14T09:29:15;93639.41;;;13.85;96.69
40592;BME280;26301;42.832;23.918;2023-05-14T09:31:40;93646.63;;;13.83;98.86
40592;BME280;26301;42.832;23.918;2023-05-14T09:34:06;93610.22;;;13.56;100.00
40592;BME280;26301;42.832;23.918;2023-05-14T09:36:33;93626.53;;;13.73;100.00
40592;BME280;26301;42.832;23.918;2023-05-14T09:38:59;93643.03;;;13.84;99.92
40592;BME280;26301;42.832;23.918;2023-05-14T09:41:27;93625.38;;;13.86;98.35
40592;BME280;26301;42.832;23.918;2023-05-14T09:43:53;93635.53;;;13.88;95.75
40592;BME280;26301;42.832;23.918;2023-05-14T09:46:21;93610.19;;;13.73;90.21
40592;BME280;26301;42.832;23.918;2023-05-14T09:48:48;93596.53;;;13.61;87.91
40592;BME280;26301;42.832;23.918;2023-05-14T09:51:15;93646.88;;;13.82;87.38
40592;BME280;26301;42.832;23.918;2023-05-14T09:53:45;93636.22;;;13.78;84.90
40592;BME280;26301;42.832;23.918;2023-05-14T09:56:12;93631.50;;;13.75;84.54
40592;BME280;26301;42.832;23.918;2023-05-14T09:58:38;93617.22;;;13.78;84.42
40592;BME280;26301;42.832;23.918;2023-05-14T10:01:03;93601.31;;;13.69;90.36
40592;BME280;26301;42.832;23.918;2023-05-14T10:03:30;93606.53;;;13.74;88.76
40592;BME280;26301;42.832;23.918;2023-05-14T10:08:35;93614.22;;;13.86;92.59
40592;BME280;26301;42.832;23.918;2023-05-14T10:11:19;93600.16;;;13.60;85.62
40592;BME280;26301;42.832;23.918;2023-05-14T10:16:52;93617.09;;;13.89;83.12
40592;BME280;26301;42.832;23.918;2023-05-14T10:19:20;93543.69;;;13.45;82.40
40592;BME280;26301;42.832;23.918;2023-05-14T10:21:52;93596.78;;;13.81;84.16
40592;BME280;26301;42.832;23.918;2023-05-14T10:24:20;93575.16;;;13.76;85.43
40592;BME280;26301;42.832;23.918;2023-05-14T10:26:47;93601.78;;;13.88;83.98
40592;BME280;26301;42.832;23.918;2023-05-14T10:29:13;93577.34;;;13.62;82.78
40592;BME280;26301;42.832;23.918;2023-05-14T10:34:39;93597.84;;;13.85;83.05
40592;BME280;26301;42.832;23.918;2023-05-14T10:44:56;93575.16;;;13.76;81.86
40592;BME280;26301;42.832;23.918;2023-05-14T10:47:34;93567.44;;;13.59;83.66
40592;BME280;26301;42.832;23.918;2023-05-14T10:50:05;93573.66;;;13.58;86.55
40592;BME280;26301;42.832;23.918;2023-05-14T10:52:32;93547.38;;;13.49;88.01
40592;BME280;26301;42.832;23.918;2023-05-14T10:55:04;93551.78;;;13.48;85.47
40592;BME280;26301;42.832;23.918;2023-05-14T10:57:37;93531.84;;;13.32;87.42
40592;BME280;26301;42.832;23.918;2023-05-14T11:00:05;93545.00;;;13.25;86.70
40592;BME280;26301;42.832;23.918;2023-05-14T11:02:39;93545.03;;;13.09;86.61
40592;BME280;26301;42.832;23.918;2023-05-14T11:07:45;93570.50;;;13.12;87.81
40592;BME280;26301;42.832;23.918;2023-05-14T11:10:15;93555.03;;;13.00;85.57
40592;BME280;26301;42.832;23.918;2023-05-14T11:12:45;93570.91;;;13.03;87.69
40592;BME280;26301;42.832;23.918;2023-05-14T11:15:25;93567.69;;;12.96;87.44
40592;BME280;26301;42.832;23.918;2023-05-14T11:17:52;93557.31;;;12.96;87.87
40592;BME280;26301;42.832;23.918;2023-05-14T11:20:19;93536.75;;;12.90;90.33
40592;BME280;26301;42.832;23.918;2023-05-14T11:22:47;93543.75;;;12.89;92.68
40592;BME280;26301;42.832;23.918;2023-05-14T11:25:14;93566.25;;;13.05;88.44
40592;BME280;26301;42.832;23.918;2023-05-14T11:27:51;93563.06;;;13.20;87.01
40592;BME280;26301;42.832;23.918;2023-05-14T11:30:20;93563.50;;;13.12;90.86
40592;BME280;26301;42.832;23.918;2023-05-14T11:32:47;93560.53;;;13.03;85.77
40592;BME280;26301;42.832;23.918;2023-05-14T11:35:13;93565.47;;;13.05;85.39
40592;BME280;26301;42.832;23.918;2023-05-14T11:37:40;93528.19;;;12.89;87.12
40592;BME280;26301;42.832;23.918;2023-05-14T11:40:16;93561.44;;;13.14;85.94
40592;BME280;26301;42.832;23.918;2023-05-14T11:42:43;93538.38;;;12.96;89.54
40592;BME280;26301;42.832;23.918;2023-05-14T11:45:27;93534.44;;;12.93;93.92
40592;BME280;26301;42.832;23.918;2023-05-14T11:47:54;93540.09;;;13.07;97.18
40592;BME280;26301;42.832;23.918;2023-05-14T11:50:21;93537.97;;;13.04;99.15
40592;BME280;26301;42.832;23.918;2023-05-14T11:52:47;93523.06;;;12.94;97.04
40592;BME280;26301;42.832;23.918;2023-05-14T11:55:15;93555.25;;;13.15;89.65
40592;BME280;26301;42.832;23.918;2023-05-14T11:57:41;93528.56;;;12.98;91.61
40592;BME280;26301;42.832;23.918;2023-05-14T12:00:09;93533.09;;;13.08;94.66
40592;BME280;26301;42.832;23.918;2023-05-14T12:02:38;93516.97;;;13.05;94.82
40592;BME280;26301;42.832;23.918;2023-05-14T12:05:05;93528.81;;;13.18;100.00
40592;BME280;26301;42.832;23.918;2023-05-14T12:07:31;93524.47;;;13.24;100.00
40592;BME280;26301;42.832;23.918;2023-05-14T12:10:07;93513.16;;;13.30;100.00
40592;BME280;26301;42.832;23.918;2023-05-14T12:12:35;93517.19;;;13.43;95.38
40592;BME280;26301;42.832;23.918;2023-05-14T12:15:10;93528.13;;;13.45;97.65
40592;BME280;26301;42.832;23.918;2023-05-14T12:17:37;93517.25;;;13.48;99.05
40592;BME280;26301;42.832;23.918;2023-05-14T12:20:04;93498.25;;;13.42;92.04
40592;BME280;26301;42.832;23.918;2023-05-14T12:22:33;93507.16;;;13.52;91.45
40592;BME280;26301;42.832;23.918;2023-05-14T12:24:59;93497.84;;;13.56;87.87
40592;BME280;26301;42.832;23.918;2023-05-14T12:27:28;93499.47;;;13.62;90.11
40592;BME280;26301;42.832;23.918;2023-05-14T12:30:02;93505.09;;;13.81;89.71
40592;BME280;26301;42.832;23.918;2023-05-14T12:32:33;93492.94;;;13.86;91.58
40592;BME280;26301;42.832;23.918;2023-05-14T12:34:59;93493.56;;;13.93;91.49
40592;BME280;26301;42.832;23.918;2023-05-14T12:37:26;93464.66;;;13.85;84.15
40592;BME280;26301;42.832;23.918;2023-05-14T12:39:52;93480.22;;;13.85;87.79
40592;BME280;26301;42.832;23.918;2023-05-14T12:42:18;93479.47;;;13.89;89.42
40592;BME280;26301;42.832;23.918;2023-05-14T12:44:44;93485.72;;;13.88;83.41
40592;BME280;26301;42.832;23.918;2023-05-14T12:47:11;93464.41;;;13.86;87.43
40592;BME280;26301;42.832;23.918;2023-05-14T12:49:37;93482.03;;;14.11;87.65
40592;BME280;26301;42.832;23.918;2023-05-14T12:52:03;93477.38;;;14.18;80.78
40592;BME280;26301;42.832;23.918;2023-05-14T12:54:30;93454.19;;;14.07;83.42
40592;BME280;26301;42.832;23.918;2023-05-14T12:56:57;93457.38;;;14.14;85.19
40592;BME280;26301;42.832;23.918;2023-05-14T12:59:22;93452.13;;;14.09;82.76
40592;BME280;26301;42.832;23.918;2023-05-14T13:01:49;93439.19;;;14.14;82.47
40592;BME280;26301;42.832;23.918;2023-05-14T13:04:15;93452.13;;;14.09;81.64
40592;BME280;26301;42.832;23.918;2023-05-14T13:06:41;93436.66;;;13.92;80.62
40592;BME280;26301;42.832;23.918;2023-05-14T13:09:09;93435.38;;;13.94;81.55
40592;BME280;26301;42.832;23.918;2023-05-14T13:11:35;93419.25;;;13.87;80.81
40592;BME280;26301;42.832;23.918;2023-05-14T13:14:01;93414.56;;;13.89;81.04
40592;BME280;26301;42.832;23.918;2023-05-14T13:16:28;93434.47;;;14.11;78.59